Time;durP1;ratioP1;P1;durP2;ratioP2;P2;SDS_P1;SDS_P2;PMS_P1;PMS_P2;Temp;Humidity;BMP_temperature;BMP_pressure;BME280_temperature;BME280_humidity;BME280_pressure;Samples;Min_cycle;Max_cycle;Signal;HPM_P1;HPM_P2
2023/06/05 00:00:53;;;;;;;7.10;4.80;;;17.10;99.90;;;;;;5095175;28;20070;-74
2023/06/05 00:03:19;;;;;;;10.07;4.95;;;17.00;99.90;;;;;;5081663;28;20029;-75
2023/06/05 00:05:45;;;;;;;5.93;4.40;;;17.10;99.90;;;;;;5091209;28;20054;-75
2023/06/05 00:08:11;;;;;;;4.82;4.30;;;17.20;99.90;;;;;;5089954;28;20061;-75
2023/06/05 00:10:37;;;;;;;9.55;4.30;;;17.20;99.90;;;;;;5071455;28;20068;-75
2023/06/05 00:13:02;;;;;;;10.88;4.55;;;17.20;99.90;;;;;;5081057;28;20066;-75
2023/06/05 00:15:28;;;;;;;11.37;4.77;;;17.20;99.90;;;;;;5088679;28;20028;-74
2023/06/05 00:17:55;;;;;;;6.40;4.70;;;17.20;99.90;;;;;;5088173;28;20020;-75
2023/06/05 00:20:20;;;;;;;7.25;4.35;;;17.20;99.90;;;;;;5087924;28;20023;-75
2023/06/05 00:22:47;;;;;;;9.17;4.63;;;16.90;99.90;;;;;;5094262;28;20472;-75
2023/06/05 00:25:12;;;;;;;8.85;4.28;;;17.00;99.90;;;;;;5084770;28;20066;-74
2023/06/05 00:27:40;;;;;;;6.90;4.20;;;17.10;99.90;;;;;;5089440;28;20063;-75
2023/06/05 00:30:08;;;;;;;8.18;4.13;;;17.00;99.90;;;;;;5096750;28;20039;-74
2023/06/05 00:32:34;;;;;;;9.50;4.75;;;16.80;99.90;;;;;;5087728;28;20017;-75
2023/06/05 00:35:00;;;;;;;12.13;4.80;;;16.80;99.90;;;;;;5084591;28;20922;-75
2023/06/05 00:37:26;;;;;;;12.82;4.72;;;16.90;99.90;;;;;;5084989;28;20529;-75
2023/06/05 00:39:52;;;;;;;14.45;4.90;;;16.80;99.90;;;;;;5069519;28;20023;-75
2023/06/05 00:42:18;;;;;;;6.77;4.87;;;16.80;99.90;;;;;;5097239;28;20024;-75
2023/06/05 00:44:43;;;;;;;7.70;4.67;;;16.60;99.90;;;;;;5094319;28;20028;-75
2023/06/05 00:47:09;;;;;;;11.27;4.87;;;16.60;99.90;;;;;;5088026;28;20035;-75
2023/06/05 00:49:36;;;;;;;6.60;4.63;;;16.60;99.90;;;;;;5084816;28;20047;-74
2023/06/05 00:52:01;;;;;;;10.30;4.20;;;16.50;99.90;;;;;;5091110;28;20503;-75
2023/06/05 00:54:27;;;;;;;8.75;4.20;;;16.50;99.90;;;;;;5086215;28;20044;-75
2023/06/05 00:56:54;;;;;;;7.82;4.30;;;16.60;99.90;;;;;;5085299;28;20032;-73
2023/06/05 00:59:20;;;;;;;10.23;4.80;;;16.70;99.90;;;;;;5089321;28;20034;-75
2023/06/05 01:01:47;;;;;;;9.57;4.93;;;16.80;99.90;;;;;;5088480;28;20385;-74
2023/06/05 01:04:13;;;;;;;10.50;4.68;;;16.70;99.90;;;;;;5081980;28;20465;-75
2023/06/05 01:06:40;;;;;;;11.37;5.10;;;16.60;99.90;;;;;;5085725;28;20050;-73
2023/06/05 01:09:10;;;;;;;7.72;4.30;;;16.50;99.90;;;;;;5098146;28;20298;-74
2023/06/05 01:12:08;;;;;;;11.82;4.53;;;16.40;99.90;;;;;;5088757;28;20052;-73
2023/06/05 01:14:35;;;;;;;;;;;16.00;99.90;;;;;;5089205;28;20037;-75
2023/06/05 01:17:08;;;;;;;6.43;4.03;;;16.10;99.90;;;;;;5099773;28;20642;-75
2023/06/05 01:19:34;;;;;;;10.65;4.60;;;16.30;99.90;;;;;;5086133;28;20103;-75
2023/06/05 01:22:01;;;;;;;21.30;4.80;;;16.30;99.90;;;;;;5091145;28;20036;-75
2023/06/05 01:24:30;;;;;;;13.75;4.65;;;16.30;99.90;;;;;;5082426;28;20793;-74
2023/06/05 01:27:00;;;;;;;6.28;4.22;;;16.20;99.90;;;;;;5089167;28;20032;-75
2023/06/05 01:29:39;;;;;;;6.13;4.60;;;16.20;99.90;;;;;;5098793;28;20031;-73
2023/06/05 01:32:16;;;;;;;11.93;4.93;;;16.10;99.90;;;;;;5090705;28;20021;-74
2023/06/05 01:34:43;;;;;;;10.05;4.55;;;16.10;99.90;;;;;;5090982;28;20460;-75
2023/06/05 01:37:14;;;;;;;12.70;4.55;;;16.10;99.90;;;;;;5091692;28;20046;-75
2023/06/05 01:39:41;;;;;;;13.95;4.78;;;16.10;99.90;;;;;;5085310;28;20028;-75
2023/06/05 01:42:08;;;;;;;6.93;4.65;;;15.90;99.90;;;;;;5091265;28;20024;-74
2023/06/05 01:44:34;;;;;;;9.82;5.22;;;15.80;99.90;;;;;;5096059;28;20027;-74
2023/06/05 01:47:01;;;;;;;13.38;4.35;;;16.00;99.90;;;;;;5092148;28;20036;-73
2023/06/05 01:49:26;;;;;;;7.38;4.95;;;16.00;99.90;;;;;;5094279;28;20047;-75
2023/06/05 01:51:54;;;;;;;7.60;5.03;;;16.10;99.90;;;;;;5075006;28;20074;-74
2023/06/05 01:54:23;;;;;;;14.63;4.93;;;16.00;99.90;;;;;;5086546;28;20780;-74
2023/06/05 01:56:49;;;;;;;8.23;4.57;;;16.00;99.90;;;;;;5089430;28;20437;-74
2023/06/05 01:59:15;;;;;;;9.43;5.05;;;16.00;99.90;;;;;;5098661;28;20027;-73
2023/06/05 02:01:43;;;;;;;6.50;4.20;;;15.90;99.90;;;;;;5090815;28;20115;-75
2023/06/05 02:04:10;;;;;;;9.02;5.35;;;15.90;99.90;;;;;;5088611;28;20023;-74
2023/06/05 02:06:41;;;;;;;12.70;5.00;;;15.80;99.90;;;;;;5094805;28;20024;-74
2023/06/05 02:09:10;;;;;;;10.18;4.97;;;15.70;99.90;;;;;;5094717;28;20594;-74
2023/06/05 02:11:42;;;;;;;9.50;4.70;;;15.80;99.90;;;;;;5082033;28;20099;-74
2023/06/05 02:14:08;;;;;;;8.15;4.80;;;15.80;99.90;;;;;;5094932;28;20495;-73
2023/06/05 02:16:36;;;;;;;;;;;15.80;99.90;;;;;;5092522;28;20016;-74
2023/06/05 02:19:03;;;;;;;10.20;4.63;;;15.80;99.90;;;;;;5094548;28;19966;-74
2023/06/05 02:21:33;;;;;;;12.18;4.88;;;15.90;99.90;;;;;;5093353;28;20032;-73
2023/06/05 02:24:02;;;;;;;5.68;4.55;;;15.80;99.90;;;;;;5084992;28;20034;-75
2023/06/05 02:26:28;;;;;;;8.95;4.95;;;15.70;99.90;;;;;;5086164;28;20112;-75
2023/06/05 02:28:54;;;;;;;8.93;4.47;;;15.80;99.90;;;;;;5095059;28;20146;-74
2023/06/05 02:31:25;;;;;;;9.23;4.60;;;16.00;99.90;;;;;;5089464;28;20035;-75
2023/06/05 02:33:52;;;;;;;9.43;4.50;;;15.80;99.90;;;;;;5080779;28;20028;-74
2023/06/05 02:36:18;;;;;;;7.70;4.70;;;15.80;99.90;;;;;;5090858;28;20028;-74
2023/06/05 02:38:44;;;;;;;4.90;4.28;;;15.70;99.90;;;;;;5087101;28;20038;-74
2023/06/05 02:41:10;;;;;;;5.85;4.35;;;15.70;99.90;;;;;;5088996;28;20878;-74
2023/06/05 02:43:35;;;;;;;11.27;4.77;;;15.80;99.90;;;;;;5087404;28;20035;-73
2023/06/05 02:46:01;;;;;;;8.03;4.70;;;15.70;99.90;;;;;;5088059;28;20044;-75
2023/06/05 02:48:26;;;;;;;12.67;4.53;;;15.70;99.90;;;;;;5090538;28;20620;-74
2023/06/05 02:50:52;;;;;;;11.67;5.07;;;15.70;99.90;;;;;;5090848;28;20099;-74
2023/06/05 02:53:18;;;;;;;11.97;4.90;;;15.70;99.90;;;;;;5092761;28;20089;-74
2023/06/05 02:55:43;;;;;;;16.13;4.83;;;15.60;99.90;;;;;;5089661;28;20036;-75
2023/06/05 02:58:12;;;;;;;6.17;4.23;;;15.60;99.90;;;;;;5095629;28;20072;-75
2023/06/05 03:00:38;;;;;;;6.63;5.53;;;15.70;99.90;;;;;;5076679;28;21097;-74
2023/06/05 03:03:06;;;;;;;7.13;4.40;;;15.70;99.90;;;;;;5083750;28;20551;-75
2023/06/05 03:05:33;;;;;;;7.70;4.43;;;15.60;99.90;;;;;;5093231;28;20104;-75
2023/06/05 03:08:01;;;;;;;9.30;4.50;;;15.60;99.90;;;;;;5088860;28;20075;-74
2023/06/05 03:10:27;;;;;;;12.35;4.60;;;15.60;99.90;;;;;;5083797;28;20040;-73
2023/06/05 03:12:53;;;;;;;7.40;5.20;;;15.50;99.90;;;;;;5074823;28;20074;-75
2023/06/05 03:15:19;;;;;;;11.27;4.30;;;15.40;99.90;;;;;;5084496;28;20056;-74
2023/06/05 03:17:45;;;;;;;6.83;5.00;;;15.30;99.90;;;;;;5086340;28;20028;-75
2023/06/05 03:20:12;;;;;;;10.15;4.53;;;15.30;99.90;;;;;;5081252;28;20031;-74
2023/06/05 03:22:38;;;;;;;11.70;4.60;;;15.40;99.90;;;;;;5084391;28;20419;-73
2023/06/05 03:25:05;;;;;;;21.65;5.63;;;15.50;99.90;;;;;;5083730;28;20058;-73
2023/06/05 03:27:31;;;;;;;10.82;5.68;;;15.30;99.90;;;;;;5081626;28;20043;-72
2023/06/05 03:29:58;;;;;;;11.00;5.07;;;15.30;99.90;;;;;;5088083;28;20032;-74
2023/06/05 03:32:24;;;;;;;13.00;5.60;;;15.40;99.90;;;;;;5081293;28;20028;-72
2023/06/05 03:34:50;;;;;;;10.68;4.90;;;15.40;99.90;;;;;;5075308;28;20036;-73
2023/06/05 03:37:16;;;;;;;8.47;4.70;;;15.50;99.90;;;;;;5080859;28;20081;-72
2023/06/05 03:39:42;;;;;;;15.73;4.80;;;15.40;99.90;;;;;;5085246;28;20102;-72
2023/06/05 03:42:09;;;;;;;10.77;4.93;;;15.30;99.90;;;;;;5086975;28;20505;-73
2023/06/05 03:44:35;;;;;;;13.75;5.60;;;15.20;99.90;;;;;;5069350;28;20462;-72
2023/06/05 03:47:00;;;;;;;7.20;4.87;;;15.20;99.90;;;;;;5077029;28;20032;-73
2023/06/05 03:49:28;;;;;;;15.18;5.20;;;15.30;99.90;;;;;;5084418;28;20909;-73
2023/06/05 03:52:00;;;;;;;10.18;5.18;;;15.20;99.90;;;;;;5078383;28;20036;-72
2023/06/05 03:54:32;;;;;;;9.32;5.20;;;15.30;99.90;;;;;;5078481;28;20555;-72
2023/06/05 03:57:00;;;;;;;7.53;5.03;;;15.40;99.90;;;;;;5070827;28;20028;-72
2023/06/05 03:59:27;;;;;;;9.10;4.88;;;15.50;99.90;;;;;;5075447;28;20054;-72
2023/06/05 04:01:54;;;;;;;20.23;4.95;;;15.50;99.90;;;;;;5076983;28;20023;-72
2023/06/05 04:04:20;;;;;;;6.82;5.03;;;15.50;99.90;;;;;;5084657;28;20039;-73
2023/06/05 04:06:46;;;;;;;10.02;5.70;;;15.60;99.90;;;;;;5079084;28;20035;-72
2023/06/05 04:09:12;;;;;;;14.68;5.57;;;15.50;99.90;;;;;;5074641;28;20102;-74
2023/06/05 04:11:43;;;;;;;13.82;5.03;;;15.50;99.90;;;;;;5072206;28;20098;-75
2023/06/05 04:14:10;;;;;;;6.22;4.30;;;15.60;99.90;;;;;;5083733;28;20035;-74
2023/06/05 04:16:41;;;;;;;6.65;4.57;;;15.60;99.90;;;;;;5075923;28;20107;-74
2023/06/05 04:19:09;;;;;;;9.23;5.32;;;15.60;99.90;;;;;;5064559;28;20036;-73
2023/06/05 04:21:35;;;;;;;9.55;5.20;;;15.60;99.90;;;;;;5093052;28;20111;-74
2023/06/05 04:24:06;;;;;;;18.95;5.47;;;15.60;99.90;;;;;;5081131;28;20016;-74
2023/06/05 04:26:36;;;;;;;9.50;4.75;;;15.60;99.90;;;;;;5078598;28;20028;-74
2023/06/05 04:29:02;;;;;;;9.13;5.00;;;15.60;99.90;;;;;;5084610;28;20048;-74
2023/06/05 04:31:32;;;;;;;5.95;4.88;;;15.50;99.90;;;;;;5083910;28;20496;-74
2023/06/05 04:33:58;;;;;;;9.27;5.20;;;15.60;99.90;;;;;;5075474;28;20119;-75
2023/06/05 04:36:25;;;;;;;;;;;15.70;99.90;;;;;;5081740;28;20032;-74
2023/06/05 04:38:51;;;;;;;9.65;4.63;;;15.70;99.90;;;;;;5084749;28;19912;-74
2023/06/05 04:41:17;;;;;;;8.20;4.67;;;15.80;99.90;;;;;;5077623;28;20043;-73
2023/06/05 04:43:42;;;;;;;7.03;4.80;;;15.80;99.90;;;;;;5080852;28;20039;-73
2023/06/05 04:46:08;;;;;;;11.53;4.73;;;15.70;99.90;;;;;;5091224;28;20290;-73
2023/06/05 04:48:34;;;;;;;11.03;4.83;;;15.70;99.90;;;;;;5086241;28;20051;-72
2023/06/05 04:51:00;;;;;;;16.10;4.82;;;15.80;99.90;;;;;;5077206;28;20063;-73
2023/06/05 04:53:28;;;;;;;10.05;5.05;;;15.60;99.90;;;;;;5085860;28;20070;-73
2023/06/05 04:55:55;;;;;;;9.10;4.97;;;15.60;99.90;;;;;;5088557;28;20024;-73
2023/06/05 04:58:21;;;;;;;7.65;5.70;;;15.70;99.90;;;;;;5077998;28;20496;-73
2023/06/05 05:00:49;;;;;;;11.48;5.00;;;15.70;99.90;;;;;;5084048;28;20067;-73
2023/06/05 05:03:16;;;;;;;12.30;4.82;;;15.80;99.90;;;;;;5080983;28;20421;-73
2023/06/05 05:05:41;;;;;;;12.27;4.43;;;15.70;99.90;;;;;;5081410;28;20454;-73
2023/06/05 05:08:07;;;;;;;4.00;3.37;;;15.80;99.90;;;;;;5079095;28;20027;-73
2023/06/05 05:10:33;;;;;;;12.60;4.63;;;15.80;99.90;;;;;;5082126;28;20027;-73
2023/06/05 05:13:01;;;;;;;10.90;4.60;;;15.80;99.90;;;;;;5080033;28;20028;-73
2023/06/05 05:15:30;;;;;;;6.93;4.13;;;15.80;99.90;;;;;;5083573;28;20028;-73
2023/06/05 05:17:57;;;;;;;7.38;5.20;;;15.90;99.90;;;;;;5085128;28;20151;-73
2023/06/05 05:20:23;;;;;;;9.77;4.03;;;16.20;99.90;;;;;;5086416;28;20020;-73
2023/06/05 05:22:49;;;;;;;18.42;4.60;;;16.60;99.90;;;;;;5086953;28;20438;-73
2023/06/05 05:25:15;;;;;;;5.93;3.97;;;16.90;99.90;;;;;;5073382;28;20028;-74
2023/06/05 05:27:41;;;;;;;9.98;3.58;;;17.20;99.90;;;;;;5087101;28;20812;-75
2023/06/05 05:30:07;;;;;;;;;;;17.20;99.90;;;;;;5088387;28;20082;-74
2023/06/05 05:32:33;;;;;;;5.15;3.58;;;18.10;99.90;;;;;;5084928;28;19912;-73
2023/06/05 05:34:58;;;;;;;7.00;3.47;;;18.70;99.90;;;;;;5088226;28;20565;-73
2023/06/05 05:37:25;;;;;;;11.80;3.93;;;19.10;99.90;;;;;;5083875;28;20119;-73
2023/06/05 05:39:51;;;;;;;7.25;3.35;;;19.00;99.90;;;;;;5086744;28;20039;-78
2023/06/05 05:42:17;;;;;;;10.65;3.40;;;19.10;99.90;;;;;;5091588;28;20502;-77
2023/06/05 05:44:43;;;;;;;9.80;3.70;;;19.80;99.90;;;;;;5086572;28;20504;-76
2023/06/05 05:47:10;;;;;;;;;;;20.40;99.90;;;;;;5088584;28;20324;-79
2023/06/05 05:49:35;;;;;;;8.18;3.30;;;20.70;99.90;;;;;;5077022;28;19915;-76
2023/06/05 05:52:01;;;;;;;5.00;3.38;;;21.00;99.90;;;;;;5079353;28;20043;-74
2023/06/05 05:54:27;;;;;;;3.83;2.97;;;21.10;99.90;;;;;;5079792;28;20662;-77
2023/06/05 05:56:54;;;;;;;9.63;3.50;;;21.80;99.90;;;;;;5077124;28;20024;-75
2023/06/05 05:59:19;;;;;;;7.22;3.40;;;21.80;99.90;;;;;;5082603;28;20308;-75
2023/06/05 06:01:45;;;;;;;8.50;3.50;;;22.00;99.90;;;;;;5081825;28;20051;-76
2023/06/05 06:04:12;;;;;;;9.23;3.53;;;21.70;99.90;;;;;;5084812;28;20212;-75
2023/06/05 06:06:39;;;;;;;8.45;3.22;;;22.30;99.90;;;;;;5075983;28;20039;-75
2023/06/05 06:09:07;;;;;;;3.95;2.70;;;22.20;99.90;;;;;;5083571;28;20431;-75
2023/06/05 06:11:33;;;;;;;5.07;3.28;;;22.70;99.90;;;;;;5061272;28;20028;-73
2023/06/05 06:14:00;;;;;;;6.65;3.10;;;23.30;99.90;;;;;;5058818;28;20032;-73
2023/06/05 06:16:25;;;;;;;7.85;3.10;;;24.10;99.90;;;;;;5086371;28;20028;-76
2023/06/05 06:18:52;;;;;;;4.90;3.08;;;24.40;99.90;;;;;;5081271;28;20016;-75
2023/06/05 06:21:18;;;;;;;6.60;2.80;;;23.80;99.90;;;;;;5080109;28;20085;-76
2023/06/05 06:23:44;;;;;;;5.28;3.38;;;24.00;99.90;;;;;;5066515;28;20115;-77
2023/06/05 06:26:11;;;;;;;;;;;24.60;99.90;;;;;;5086820;28;20376;-77
2023/06/05 06:28:37;;;;;;;4.80;3.20;;;24.50;99.90;;;;;;5078250;28;19916;-76
2023/06/05 06:31:03;;;;;;;11.52;3.13;;;25.10;99.90;;;;;;5080643;28;20033;-75
2023/06/05 06:33:29;;;;;;;7.55;2.80;;;25.50;99.90;;;;;;5084639;28;20103;-75
2023/06/05 06:35:58;;;;;;;7.00;2.33;;;25.90;99.90;;;;;;5086731;28;20377;-78
2023/06/05 06:38:27;;;;;;;7.05;2.60;;;26.10;99.90;;;;;;5088470;28;20115;-77
2023/06/05 06:40:52;;;;;;;8.38;2.80;;;24.90;99.90;;;;;;5080443;28;20067;-74
2023/06/05 06:43:18;;;;;;;6.25;2.40;;;24.20;99.90;;;;;;5081779;28;20047;-75
2023/06/05 06:45:43;;;;;;;6.13;2.63;;;23.60;99.90;;;;;;5085913;28;20506;-76
2023/06/05 06:48:09;;;;;;;6.18;2.92;;;23.50;99.90;;;;;;5068833;28;20032;-74
2023/06/05 06:50:35;;;;;;;3.88;3.13;;;23.60;99.90;;;;;;5070689;28;20089;-75
2023/06/05 06:53:02;;;;;;;10.75;3.25;;;24.40;99.90;;;;;;5076156;28;20103;-76
2023/06/05 06:55:27;;;;;;;5.75;2.80;;;25.30;99.90;;;;;;5075923;28;20032;-78
2023/06/05 06:57:53;;;;;;;5.60;2.83;;;25.60;99.90;;;;;;5086625;28;20043;-73
2023/06/05 07:00:20;;;;;;;5.07;2.78;;;25.90;99.60;;;;;;5082893;28;20091;-73
2023/06/05 07:02:45;;;;;;;5.38;2.75;;;25.20;99.90;;;;;;5073610;28;20503;-73
2023/06/05 07:05:11;;;;;;;4.13;2.50;;;24.80;99.90;;;;;;5086702;28;20016;-72
2023/06/05 07:07:37;;;;;;;9.45;2.88;;;24.70;99.90;;;;;;5077683;28;20036;-73
2023/06/05 07:10:02;;;;;;;4.25;2.75;;;24.20;99.90;;;;;;5086951;28;20040;-73
2023/06/05 07:12:28;;;;;;;3.90;2.55;;;24.10;99.90;;;;;;5081198;28;20032;-73
2023/06/05 07:14:54;;;;;;;5.18;2.97;;;24.40;99.90;;;;;;5081564;28;20021;-73
2023/06/05 07:17:20;;;;;;;;;;;23.90;99.90;;;;;;5085134;28;20542;-73
2023/06/05 07:19:45;;;;;;;7.03;3.30;;;23.60;99.90;;;;;;5079937;28;19989;-73
2023/06/05 07:22:11;;;;;;;5.25;3.10;;;23.50;99.90;;;;;;5088622;28;20514;-76
2023/06/05 07:24:38;;;;;;;4.22;2.78;;;23.30;99.90;;;;;;5060178;28;20069;-73
2023/06/05 07:27:04;;;;;;;9.00;3.47;;;23.00;99.90;;;;;;5090589;28;20035;-74
2023/06/05 07:29:30;;;;;;;8.18;3.22;;;23.00;99.90;;;;;;5084170;28;20047;-73
2023/06/05 07:31:57;;;;;;;5.50;3.03;;;23.00;99.90;;;;;;5082922;28;20028;-74
2023/06/05 07:34:24;;;;;;;7.82;3.80;;;23.00;99.90;;;;;;5074872;28;20039;-74
2023/06/05 07:36:55;;;;;;;5.47;3.85;;;22.90;99.90;;;;;;5082750;28;20029;-74
2023/06/05 07:39:22;;;;;;;8.73;4.07;;;22.80;99.90;;;;;;5083729;28;20099;-73
2023/06/05 07:41:48;;;;;;;6.15;3.80;;;22.90;99.90;;;;;;5078627;28;20606;-73
2023/06/05 07:44:16;;;;;;;8.00;3.28;;;22.70;99.90;;;;;;5089677;28;20047;-73
2023/06/05 07:46:43;;;;;;;6.28;3.42;;;22.60;99.90;;;;;;5083246;28;20036;-73
2023/06/05 07:49:09;;;;;;;3.47;2.97;;;22.70;99.90;;;;;;5083760;28;20084;-75
2023/06/05 07:51:38;;;;;;;4.07;3.58;;;22.60;99.90;;;;;;5082933;28;20099;-74
2023/06/05 07:54:07;;;;;;;5.85;3.20;;;22.70;99.90;;;;;;5061478;28;20390;-75
2023/06/05 07:56:34;;;;;;;4.95;4.05;;;22.70;99.90;;;;;;5083015;28;20051;-75
2023/06/05 07:59:02;;;;;;;8.00;3.15;;;22.70;99.90;;;;;;5080564;28;20044;-74
2023/06/05 08:01:30;;;;;;;6.57;3.72;;;22.80;99.90;;;;;;5081356;28;20055;-75
2023/06/05 08:03:55;;;;;;;5.55;3.45;;;22.50;99.90;;;;;;5082827;28;20043;-74
2023/06/05 08:06:21;;;;;;;6.57;3.50;;;22.50;99.90;;;;;;5074032;28;20040;-74
2023/06/05 08:08:47;;;;;;;3.92;3.30;;;22.70;99.90;;;;;;5086000;28;20031;-74
2023/06/05 08:11:12;;;;;;;3.60;3.07;;;23.00;99.90;;;;;;5077428;28;20067;-73
2023/06/05 08:13:38;;;;;;;6.57;3.83;;;23.60;99.90;;;;;;5081481;28;20028;-74
2023/06/05 08:16:05;;;;;;;4.60;3.10;;;23.90;99.90;;;;;;5084805;28;20290;-74
2023/06/05 08:18:31;;;;;;;7.32;3.30;;;23.80;99.90;;;;;;5079180;28;20032;-74
2023/06/05 08:20:56;;;;;;;9.43;3.33;;;23.60;99.90;;;;;;5080662;28;20035;-74
2023/06/05 08:23:22;;;;;;;4.97;4.00;;;23.50;99.90;;;;;;5074818;28;20637;-74
2023/06/05 08:25:48;;;;;;;6.50;3.33;;;24.20;99.90;;;;;;5080810;28;20035;-74
2023/06/05 08:28:16;;;;;;;4.38;3.28;;;25.80;99.90;;;;;;5084155;28;20119;-75
2023/06/05 08:30:46;;;;;;;5.57;3.10;;;27.50;97.90;;;;;;5079127;28;20076;-73
2023/06/05 08:33:11;;;;;;;3.58;2.95;;;27.70;95.20;;;;;;5083513;28;20055;-75
2023/06/05 08:35:40;;;;;;;4.03;3.10;;;27.80;92.70;;;;;;5079517;28;20125;-75
2023/06/05 08:38:06;;;;;;;4.47;2.80;;;28.70;88.10;;;;;;5082878;28;20399;-75
2023/06/05 08:40:33;;;;;;;3.47;2.80;;;29.40;87.50;;;;;;5073521;28;20025;-76
2023/06/05 08:43:01;;;;;;;3.80;3.00;;;29.50;90.60;;;;;;5081595;28;20071;-75
2023/06/05 08:45:27;;;;;;;3.88;3.28;;;29.40;89.00;;;;;;5090482;28;20483;-75
2023/06/05 08:47:58;;;;;;;5.88;3.15;;;28.20;94.90;;;;;;5076301;28;20035;-75
2023/06/05 08:50:26;;;;;;;4.43;3.13;;;27.10;97.40;;;;;;5076661;28;20036;-76
2023/06/05 08:52:52;;;;;;;4.95;2.88;;;26.90;98.00;;;;;;5090588;28;20024;-75
2023/06/05 08:55:18;;;;;;;3.72;2.78;;;26.80;96.90;;;;;;5083584;28;20086;-76
2023/06/05 08:57:44;;;;;;;4.75;3.20;;;27.80;96.60;;;;;;5060423;28;20025;-75
2023/06/05 09:00:10;;;;;;;4.32;3.40;;;29.60;90.70;;;;;;5080722;28;20032;-76
2023/06/05 09:02:43;;;;;;;4.93;3.60;;;31.50;82.80;;;;;;5079459;28;20400;-75
2023/06/05 09:05:09;;;;;;;3.50;3.20;;;32.50;76.00;;;;;;5083689;28;20039;-76
2023/06/05 09:07:36;;;;;;;5.68;3.30;;;32.40;69.80;;;;;;5085983;28;20016;-76
2023/06/05 09:10:03;;;;;;;4.20;2.78;;;32.90;70.30;;;;;;5088084;28;20078;-75
2023/06/05 09:12:28;;;;;;;6.82;3.47;;;33.00;69.80;;;;;;5076582;28;20020;-76
2023/06/05 09:14:54;;;;;;;4.97;2.72;;;33.30;67.40;;;;;;5090830;28;20043;-75
2023/06/05 09:17:22;;;;;;;3.28;2.70;;;33.70;65.30;;;;;;5077995;28;20141;-76
2023/06/05 09:19:48;;;;;;;4.63;3.08;;;34.40;64.90;;;;;;5057678;28;20023;-76
2023/06/05 09:22:31;;;;;;;5.05;2.85;;;34.20;65.50;;;;;;5084931;28;20039;-76
2023/06/05 09:24:57;;;;;;;4.25;2.95;;;34.00;64.00;;;;;;5079473;28;20488;-75
2023/06/05 09:27:23;;;;;;;4.25;2.80;;;33.50;77.50;;;;;;5078609;28;20034;-76
2023/06/05 09:30:01;;;;;;;5.50;3.28;;;34.30;67.50;;;;;;5084046;28;20036;-76
2023/06/05 09:32:26;;;;;;;3.88;3.20;;;34.90;66.10;;;;;;5084382;28;20024;-76
2023/06/05 09:35:00;;;;;;;3.78;3.33;;;34.70;65.00;;;;;;5070309;28;20037;-75
2023/06/05 09:37:36;;;;;;;3.72;3.10;;;34.90;61.80;;;;;;5062771;28;20506;-76
2023/06/05 09:40:04;;;;;;;4.28;2.67;;;35.00;58.00;;;;;;5072312;28;20067;-76
2023/06/05 09:42:34;;;;;;;3.08;2.70;;;34.60;61.50;;;;;;5082061;28;20458;-76
2023/06/05 09:45:01;;;;;;;3.53;3.20;;;34.80;60.20;;;;;;5088201;28;20028;-76
2023/06/05 09:47:26;;;;;;;5.82;4.18;;;35.20;56.80;;;;;;5083982;28;20511;-76
2023/06/05 09:49:52;;;;;;;4.35;3.40;;;35.20;58.00;;;;;;5086370;28;20079;-76
2023/06/05 09:52:18;;;;;;;3.35;2.83;;;33.90;68.90;;;;;;5086345;28;20028;-76
2023/06/05 09:54:46;;;;;;;5.80;3.00;;;34.30;59.50;;;;;;5086226;28;20043;-76
2023/06/05 09:57:13;;;;;;;6.80;3.50;;;33.60;59.10;;;;;;5085109;28;20027;-76
2023/06/05 09:59:55;;;;;;;5.93;3.00;;;34.30;62.40;;;;;;5064238;28;20047;-76
2023/06/05 10:02:32;;;;;;;3.63;2.95;;;35.40;62.80;;;;;;5088922;28;20114;-75
2023/06/05 10:05:01;;;;;;;4.13;2.95;;;35.00;58.30;;;;;;5082384;28;20510;-75
2023/06/05 10:07:27;;;;;;;5.95;3.33;;;34.90;62.50;;;;;;5081351;28;20056;-76
2023/06/05 10:09:54;;;;;;;5.28;3.50;;;35.00;58.90;;;;;;5082247;28;20439;-76
2023/06/05 10:12:20;;;;;;;4.25;3.38;;;34.80;59.60;;;;;;5078121;28;20032;-77
2023/06/05 10:14:48;;;;;;;5.20;3.72;;;34.60;57.60;;;;;;5082648;28;20032;-76
2023/06/05 10:17:14;;;;;;;6.53;3.40;;;33.60;61.10;;;;;;5086599;28;20123;-77
2023/06/05 10:19:44;;;;;;;8.63;3.92;;;32.70;66.90;;;;;;5060454;28;20036;-77
2023/06/05 10:22:11;;;;;;;5.65;4.72;;;31.70;77.80;;;;;;5086931;28;20035;-76
2023/06/05 10:24:42;;;;;;;8.55;5.43;;;30.60;82.00;;;;;;5082359;28;20043;-77
2023/06/05 10:27:11;;;;;;;5.32;4.30;;;30.30;89.40;;;;;;5086470;28;20028;-77
2023/06/05 10:29:46;;;;;;;5.25;4.25;;;29.10;74.90;;;;;;5090066;28;20046;-75
2023/06/05 10:32:28;;;;;;;7.65;4.10;;;28.60;82.10;;;;;;5091135;28;20035;-76
2023/06/05 10:35:08;;;;;;;6.88;3.65;;;28.50;94.20;;;;;;5085450;28;20417;-75
2023/06/05 10:38:01;;;;;;;6.05;4.90;;;28.40;92.90;;;;;;5087464;28;20028;-76
2023/06/05 10:40:27;;;;;;;7.95;4.50;;;28.50;92.10;;;;;;5061704;28;20504;-75
2023/06/05 10:42:53;;;;;;;6.28;3.78;;;28.50;92.40;;;;;;5077350;28;20032;-77
2023/06/05 10:45:32;;;;;;;;;;;28.40;95.20;;;;;;5063891;28;20067;-78
2023/06/05 10:47:57;;;;;;;5.05;4.00;;;28.00;93.40;;;;;;5084547;28;19920;-76
2023/06/05 10:50:27;;;;;;;5.13;4.15;;;27.80;94.20;;;;;;5079128;28;20340;-75
2023/06/05 10:52:55;;;;;;;5.82;4.28;;;28.10;93.50;;;;;;5081929;28;20373;-75
2023/06/05 10:55:22;;;;;;;7.25;5.57;;;27.80;95.40;;;;;;5083548;28;20036;-76
2023/06/05 10:58:00;;;;;;;5.07;4.13;;;28.20;96.30;;;;;;5078287;28;20123;-76
2023/06/05 11:00:27;;;;;;;5.07;3.92;;;28.10;96.20;;;;;;5077478;28;20028;-77
2023/06/05 11:02:53;;;;;;;6.20;4.80;;;28.10;97.80;;;;;;5082060;28;20107;-76
2023/06/05 11:05:19;;;;;;;6.75;4.28;;;28.30;96.90;;;;;;5074838;28;20063;-76
2023/06/05 11:07:45;;;;;;;7.68;4.63;;;28.10;96.80;;;;;;5078888;28;20042;-74
2023/06/05 11:10:20;;;;;;;;;;;28.20;98.90;;;;;;5085513;28;20067;-75
2023/06/05 11:12:46;;;;;;;8.20;4.72;;;27.70;96.00;;;;;;5065814;28;19911;-76
2023/06/05 11:15:12;;;;;;;8.23;5.40;;;27.50;99.90;;;;;;5081550;28;20039;-74
2023/06/05 11:17:39;;;;;;;11.55;6.20;;;27.60;97.90;;;;;;5087315;28;20028;-78
2023/06/05 11:20:28;;;;;;;7.65;5.47;;;27.90;99.90;;;;;;5084958;28;20128;-76
2023/06/05 11:22:55;;;;;;;9.50;6.43;;;27.30;98.90;;;;;;5078728;28;20458;-81
2023/06/05 11:25:21;;;;;;;9.40;6.07;;;27.30;99.20;;;;;;5082949;28;20112;-78
2023/06/05 11:27:49;;;;;;;6.63;5.00;;;27.00;99.30;;;;;;5085798;28;20122;-77
2023/06/05 11:30:20;;;;;;;10.77;6.25;;;27.20;99.30;;;;;;5078689;28;20039;-76
2023/06/05 11:32:47;;;;;;;6.40;5.00;;;27.30;99.90;;;;;;5080520;28;20020;-75
2023/06/05 11:35:13;;;;;;;7.63;4.75;;;27.70;99.90;;;;;;5077431;28;20032;-75
2023/06/05 11:37:42;;;;;;;8.93;5.45;;;27.60;99.90;;;;;;5074446;28;20102;-75
2023/06/05 11:40:11;;;;;;;7.20;5.18;;;27.80;99.90;;;;;;5079646;28;20042;-75
2023/06/05 11:42:39;;;;;;;6.38;4.88;;;27.90;99.60;;;;;;5075172;28;20033;-75
2023/06/05 11:45:11;;;;;;;4.72;4.18;;;27.90;99.90;;;;;;5080707;28;20031;-77
2023/06/05 11:47:37;;;;;;;19.77;6.93;;;27.70;98.20;;;;;;5084026;28;20054;-73
2023/06/05 11:50:12;;;;;;;12.70;4.60;;;27.60;98.20;;;;;;5083771;28;20056;-77
2023/06/05 11:52:39;;;;;;;7.97;5.47;;;27.50;99.90;;;;;;5070746;28;20040;-76
2023/06/05 11:55:21;;;;;;;35.08;8.85;;;27.80;98.30;;;;;;5084898;28;20052;-68
2023/06/05 11:57:48;;;;;;;9.30;5.85;;;27.70;99.90;;;;;;5084843;28;20400;-72
2023/06/05 12:00:16;;;;;;;97.38;22.30;;;27.80;99.90;;;;;;5080020;28;20035;-66
2023/06/05 12:02:42;;;;;;;70.88;23.70;;;27.60;99.90;;;;;;5077832;28;20040;-71
2023/06/05 12:05:11;;;;;;;61.00;18.65;;;27.30;99.90;;;;;;5082255;28;20359;-71
2023/06/05 12:07:39;;;;;;;103.45;29.45;;;27.20;99.90;;;;;;5081338;28;20024;-68
2023/06/05 12:10:06;;;;;;;49.60;16.38;;;27.20;99.90;;;;;;5081073;28;20032;-72
2023/06/05 12:12:33;;;;;;;22.52;11.40;;;27.10;99.90;;;;;;5075480;28;20094;-69
2023/06/05 12:15:17;;;;;;;46.92;15.95;;;27.20;99.90;;;;;;5083866;28;20122;-68
2023/06/05 12:18:09;;;;;;;39.92;14.30;;;27.10;99.90;;;;;;5071873;28;20020;-69
2023/06/05 12:20:41;;;;;;;21.33;10.65;;;27.00;99.90;;;;;;5076711;28;20564;-70
2023/06/05 12:23:07;;;;;;;28.38;13.98;;;27.20;99.90;;;;;;5080728;28;20077;-70
2023/06/05 12:25:33;;;;;;;15.98;9.20;;;27.30;99.90;;;;;;5078924;28;20381;-69
2023/06/05 12:27:59;;;;;;;15.73;8.77;;;27.20;99.90;;;;;;5080971;28;20044;-68
2023/06/05 12:30:24;;;;;;;19.38;9.45;;;27.20;99.20;;;;;;5076255;28;20048;-71
2023/06/05 12:32:51;;;;;;;15.98;8.10;;;27.20;99.90;;;;;;5084010;28;20167;-70
2023/06/05 12:35:20;;;;;;;;;;;27.00;99.90;;;;;;5070248;28;20072;-71
2023/06/05 12:37:47;;;;;;;18.10;9.93;;;27.10;99.90;;;;;;5078451;28;19935;-71
2023/06/05 12:40:14;;;;;;;11.75;6.55;;;27.30;99.90;;;;;;5076698;28;20032;-68
2023/06/05 12:42:43;;;;;;;12.27;6.32;;;27.10;99.90;;;;;;5074033;28;20527;-71
2023/06/05 12:45:09;;;;;;;8.02;6.50;;;27.00;99.90;;;;;;5087256;28;20036;-70
2023/06/05 12:47:36;;;;;;;7.88;5.75;;;27.10;99.90;;;;;;5076318;28;20028;-72